createdAt,value
2023-03-17T00:00:32.812Z,25.73
2023-03-17T03:44:39.279Z,25.61
2023-03-17T03:48:39.486Z,25.63
2023-03-17T03:52:39.712Z,25.58
2023-03-17T03:56:39.876Z,25.63
2023-03-17T04:00:40.086Z,25.61
2023-03-17T04:04:40.315Z,25.63
2023-03-17T04:08:40.539Z,25.60
2023-03-17T04:12:40.745Z,25.60
2023-03-17T04:16:43.280Z,25.60
2023-03-17T04:20:40.668Z,25.60
2023-03-17T04:24:40.650Z,25.61
2023-03-17T04:28:40.582Z,25.63
2023-03-17T04:32:40.664Z,25.61
2023-03-17T04:36:40.520Z,25.63
2023-03-17T04:40:40.497Z,25.58
2023-03-17T04:44:40.538Z,25.58
2023-03-17T04:48:40.710Z,25.58
2023-03-17T04:52:40.928Z,25.58
2023-03-17T04:56:40.908Z,25.58
2023-03-17T05:00:40.916Z,25.57
2023-03-17T05:04:40.807Z,25.58
2023-03-17T05:08:40.762Z,25.58
2023-03-17T05:12:40.766Z,25.60
2023-03-17T05:16:40.746Z,25.57
2023-03-17T05:20:40.809Z,25.56
2023-03-17T05:24:40.764Z,25.57
2023-03-17T05:28:40.772Z,25.56
2023-03-17T05:32:40.739Z,25.57
2023-03-17T05:36:40.678Z,25.58
2023-03-17T05:40:40.621Z,25.57
2023-03-17T05:44:40.606Z,25.58
2023-03-17T05:48:40.683Z,25.60
2023-03-17T05:52:40.825Z,25.57
2023-03-17T05:56:40.786Z,25.58
2023-03-17T07:52:43.109Z,25.91
2023-03-17T13:16:47.697Z,26.00
2023-03-17T13:32:48.240Z,26.00
2023-03-17T13:36:48.150Z,25.98
2023-03-17T13:40:48.711Z,26.00
2023-03-17T13:44:48.557Z,25.98
2023-03-17T13:48:49.207Z,25.98
2023-03-17T13:52:49.220Z,26.00
2023-03-17T13:56:49.274Z,25.96
2023-03-17T14:00:49.831Z,25.98
2023-03-17T14:04:49.537Z,26.00
2023-03-17T14:08:49.749Z,25.98
2023-03-17T14:12:51.381Z,25.99
2023-03-17T14:16:50.516Z,25.98
2023-03-17T14:20:50.724Z,25.96
2023-03-17T14:24:51.746Z,25.96
2023-03-17T14:28:50.736Z,25.96
2023-03-17T14:32:51.001Z,25.99
2023-03-17T14:36:51.275Z,25.93
2023-03-17T14:40:50.825Z,25.98
2023-03-17T14:44:50.787Z,25.96
2023-03-17T14:48:50.799Z,25.99
2023-03-17T14:52:50.738Z,26.03
2023-03-17T14:56:50.708Z,26.06
2023-03-17T15:00:50.638Z,26.06
2023-03-17T15:04:50.765Z,26.03
2023-03-17T15:08:50.585Z,26.03
2023-03-17T15:12:50.742Z,26.06
2023-03-17T15:16:50.867Z,26.10
2023-03-17T15:20:50.769Z,26.08
2023-03-17T15:24:51.248Z,26.09
2023-03-17T15:28:51.244Z,26.12
2023-03-17T15:32:51.315Z,26.10
2023-03-17T15:36:51.291Z,26.10
2023-03-17T15:40:50.882Z,26.13
2023-03-17T15:44:51.254Z,26.13
2023-03-17T15:48:50.975Z,25.95
2023-03-17T15:52:51.199Z,25.54
2023-03-17T15:56:51.218Z,25.33
2023-03-17T16:00:51.766Z,25.11
2023-03-17T16:04:51.576Z,24.91
2023-03-17T16:08:51.560Z,24.70
2023-03-17T16:12:51.511Z,24.72
2023-03-17T16:16:51.762Z,24.95
2023-03-17T16:20:51.421Z,25.19
2023-03-17T19:16:54.498Z,25.91
2023-03-17T19:20:54.672Z,25.91
2023-03-17T19:24:54.862Z,25.87
2023-03-17T19:28:55.064Z,25.87
2023-03-17T19:44:55.919Z,25.81
2023-03-17T19:48:55.875Z,25.82
2023-03-17T19:52:55.868Z,25.80
2023-03-17T19:56:56.326Z,25.78
2023-03-17T20:00:55.777Z,25.80
2023-03-17T20:04:55.821Z,25.81
2023-03-17T20:08:55.714Z,25.77
2023-03-17T20:12:55.868Z,25.78
2023-03-17T20:16:55.735Z,25.80
2023-03-17T20:20:55.702Z,25.77
2023-03-17T20:24:55.684Z,25.75
2023-03-17T20:28:55.631Z,25.77
2023-03-17T20:32:55.690Z,25.75
2023-03-17T20:36:55.553Z,25.75
2023-03-17T20:40:55.623Z,25.73
2023-03-17T20:44:55.824Z,25.75
2023-03-17T20:48:56.029Z,25.74
2023-03-17T20:52:55.999Z,25.73
2023-03-17T20:56:55.993Z,25.71
2023-03-17T21:00:55.917Z,25.70
2023-03-17T21:04:55.884Z,25.71
2023-03-17T21:08:55.846Z,25.70
2023-03-17T21:12:55.837Z,25.73
2023-03-17T21:16:55.979Z,25.70
2023-03-17T21:20:55.950Z,25.73
2023-03-17T21:24:55.921Z,25.70
2023-03-17T21:28:55.899Z,25.70
2023-03-17T21:32:55.893Z,25.67
2023-03-17T21:36:56.004Z,25.68
2023-03-17T21:40:55.994Z,25.65
2023-03-17T21:44:55.973Z,25.64
2023-03-17T21:48:55.897Z,25.65
2023-03-17T21:56:55.817Z,25.64
2023-03-17T22:00:55.882Z,25.63
2023-03-17T22:04:56.000Z,25.61
2023-03-17T22:08:55.970Z,25.63
2023-03-17T22:12:55.928Z,25.61
2023-03-17T22:16:55.982Z,25.63
2023-03-17T22:20:55.870Z,25.61
2023-03-17T22:24:55.823Z,25.60
2023-03-17T22:28:55.822Z,25.57
2023-03-17T22:32:56.048Z,25.58
2023-03-17T22:36:55.881Z,25.58
2023-03-17T22:40:55.843Z,25.57
2023-03-17T22:44:55.802Z,25.58
2023-03-17T22:48:55.816Z,25.56
2023-03-17T22:52:55.735Z,25.57
2023-03-17T22:56:55.694Z,25.56
2023-03-17T23:00:55.920Z,25.57
2023-03-17T23:04:56.090Z,25.56
2023-03-17T23:08:56.285Z,25.54
2023-03-17T23:12:56.410Z,25.51
2023-03-17T23:16:56.642Z,25.51
2023-03-17T23:20:56.780Z,25.51
2023-03-17T23:24:56.908Z,25.53
2023-03-17T23:28:57.051Z,25.54
2023-03-17T23:32:57.250Z,25.51
2023-03-17T23:36:57.359Z,25.53
2023-03-17T23:40:57.513Z,25.51
2023-03-17T23:44:57.690Z,25.54
2023-03-17T23:48:57.874Z,25.56
2023-03-17T23:52:58.118Z,25.57
2023-03-17T23:56:58.087Z,25.58
